Cardwell, Missouri
Current Conditions -  °F | °C
As of 3:35 PM on Thursday 18 Dec 2014 (Local Time) from K4M9 Reporting Station
Broken Clouds Broken Clouds  
Wind Chill:   Ceiling: 1500
Heat Index:   Visibility: 7mi
Dew Point:   Wind: 7mph
Humidity: 81%   Direction: 60°ENE
Pressure: 30.21"   Gusts: NA
Location:  36.05°N, 90.29°W
Report Text: K4M9 182135Z AUTO 06006KT 7SM BKN015 05/02 A3021 RMK AO2
Loading
Personal Weather Stations






























Interactive Weather Map New forecast layout! Learn more

10-Day Weather Forecast

Advertisements
Track Severe Weather on mobile